createdAt,value
2023-01-18T00:00:29.191Z,68.98
2023-01-18T00:03:21.758Z,69.03
2023-01-18T00:05:55.449Z,68.99
2023-01-18T00:08:27.784Z,69.20
2023-01-18T00:11:05.547Z,69.03
2023-01-18T00:13:38.103Z,69.12
2023-01-18T00:16:14.155Z,69.07
2023-01-18T00:18:51.129Z,69.07
2023-01-18T00:21:24.310Z,69.16
2023-01-18T00:23:57.284Z,69.06
2023-01-18T00:26:29.563Z,69.14
2023-01-18T00:29:01.888Z,69.07
2023-01-18T00:31:34.188Z,69.14
2023-01-18T00:34:06.523Z,69.17
2023-01-18T00:36:38.992Z,69.17
2023-01-18T00:39:13.025Z,69.06
2023-01-18T00:41:59.241Z,69.12
2023-01-18T00:44:32.159Z,69.18
2023-01-18T00:47:04.317Z,69.19
2023-01-18T00:49:36.622Z,69.03
2023-01-18T00:52:09.093Z,68.98
2023-01-18T00:54:41.385Z,69.02
2023-01-18T00:57:13.861Z,69.08
2023-01-18T00:59:48.061Z,69.10
2023-01-18T01:02:20.354Z,69.13
2023-01-18T01:05:10.073Z,68.98
2023-01-18T01:07:42.237Z,69.16
2023-01-18T01:10:15.275Z,69.11
2023-01-18T01:13:05.463Z,69.02
2023-01-18T01:15:57.051Z,69.21
2023-01-18T01:18:46.672Z,69.07
2023-01-18T01:21:36.610Z,69.21
2023-01-18T01:24:26.649Z,69.16
2023-01-18T01:26:58.888Z,69.31
2023-01-18T01:29:31.133Z,69.36
2023-01-18T01:32:03.810Z,69.29
2023-01-18T01:34:36.094Z,69.31
2023-01-18T01:37:08.606Z,69.17
2023-01-18T01:39:40.872Z,69.16
2023-01-18T01:42:14.613Z,69.32
2023-01-18T01:44:52.521Z,69.30
2023-01-18T01:47:41.303Z,69.32
2023-01-18T01:50:25.713Z,69.30
2023-01-18T01:52:59.436Z,69.36
2023-01-18T01:55:33.882Z,69.54
2023-01-18T01:58:10.486Z,69.56
2023-01-18T02:00:42.904Z,69.51
2023-01-18T02:03:19.293Z,69.45
2023-01-18T02:05:56.807Z,69.45
2023-01-18T02:08:29.540Z,69.37
2023-01-18T02:11:01.709Z,69.53
2023-01-18T02:13:34.075Z,69.69
2023-01-18T02:16:14.917Z,69.47
2023-01-18T02:18:55.917Z,69.89
2023-01-18T02:21:35.125Z,69.54
2023-01-18T02:24:59.862Z,69.45
2023-01-18T02:27:43.682Z,69.61
2023-01-18T02:30:24.166Z,69.79
2023-01-18T02:33:06.430Z,69.62
2023-01-18T02:35:49.842Z,69.66
2023-01-18T02:38:26.095Z,69.60
2023-01-18T02:41:10.058Z,69.83
2023-01-18T02:44:01.483Z,69.73
2023-01-18T02:46:39.032Z,69.79
2023-01-18T02:49:13.510Z,70.10
2023-01-18T02:51:45.750Z,69.87
2023-01-18T02:54:24.709Z,69.87
2023-01-18T02:56:57.885Z,70.04
2023-01-18T02:59:36.818Z,69.94
2023-01-18T03:02:13.281Z,69.91
2023-01-18T03:04:54.511Z,70.03
2023-01-18T03:07:32.112Z,70.24
2023-01-18T03:10:08.221Z,70.00
2023-01-18T03:12:49.737Z,70.13
2023-01-18T03:15:30.163Z,70.07
2023-01-18T03:18:06.208Z,70.57
2023-01-18T03:20:44.557Z,70.39
2023-01-18T03:23:40.095Z,70.13
2023-01-18T03:26:16.558Z,70.27
2023-01-18T03:29:11.981Z,70.19
2023-01-18T03:32:05.785Z,70.30
2023-01-18T03:34:45.247Z,70.34
2023-01-18T03:37:22.558Z,70.46
2023-01-18T03:39:58.492Z,70.31
2023-01-18T03:42:30.533Z,70.46
2023-01-18T03:45:10.060Z,70.65
2023-01-18T03:47:42.775Z,70.59
2023-01-18T03:50:15.783Z,70.60
2023-01-18T03:52:52.693Z,70.64
2023-01-18T03:55:32.606Z,70.66
2023-01-18T03:58:09.636Z,70.56
2023-01-18T04:00:42.683Z,70.65
2023-01-18T04:03:14.901Z,70.66
2023-01-18T04:05:47.301Z,70.70
2023-01-18T04:08:21.999Z,70.85
2023-01-18T04:10:54.188Z,70.65
2023-01-18T04:13:26.496Z,70.82
2023-01-18T04:15:58.716Z,70.69
2023-01-18T04:18:31.079Z,70.84
2023-01-18T04:21:03.661Z,70.82
2023-01-18T04:23:35.943Z,70.91
2023-01-18T04:26:08.345Z,70.84
2023-01-18T04:28:40.493Z,70.98
2023-01-18T04:31:12.760Z,70.90
2023-01-18T04:33:45.009Z,71.15
2023-01-18T04:36:17.276Z,70.96
2023-01-18T04:38:53.257Z,71.07
2023-01-18T04:41:26.064Z,70.95
2023-01-18T04:43:58.253Z,70.93
2023-01-18T04:46:30.591Z,71.15
2023-01-18T04:49:02.827Z,71.22
2023-01-18T04:51:35.315Z,71.06
2023-01-18T04:54:07.690Z,71.11
2023-01-18T04:56:40.481Z,71.07
2023-01-18T04:59:15.758Z,71.03
2023-01-18T05:01:48.218Z,71.08
2023-01-18T05:04:20.782Z,71.00
2023-01-18T05:06:53.553Z,71.18
2023-01-18T05:09:25.822Z,71.12
2023-01-18T05:11:58.070Z,71.07
2023-01-18T05:14:30.446Z,71.37
2023-01-18T05:17:02.721Z,71.25
2023-01-18T05:19:36.692Z,71.28
2023-01-18T05:22:08.989Z,71.24
2023-01-18T05:24:41.276Z,71.18
2023-01-18T05:27:13.456Z,71.25
2023-01-18T05:29:45.781Z,71.18
2023-01-18T05:32:18.100Z,71.38
2023-01-18T05:34:50.389Z,71.27
2023-01-18T05:37:22.652Z,71.46
2023-01-18T05:39:54.868Z,71.52
2023-01-18T05:42:27.148Z,71.54
2023-01-18T05:44:59.535Z,71.45
2023-01-18T05:47:31.969Z,71.48
2023-01-18T05:50:04.270Z,71.59
2023-01-18T05:52:36.457Z,71.62
2023-01-18T05:55:10.089Z,71.55
2023-01-18T05:57:42.324Z,71.71
2023-01-18T06:00:15.643Z,71.52
2023-01-18T06:02:47.948Z,71.69
2023-01-18T06:05:20.848Z,71.88
2023-01-18T06:07:53.460Z,71.85
2023-01-18T06:10:25.723Z,71.76
2023-01-18T06:12:58.222Z,71.75
2023-01-18T06:15:30.714Z,71.83
2023-01-18T06:18:03.713Z,71.90
2023-01-18T06:20:36.115Z,71.81
2023-01-18T06:23:08.284Z,71.80
2023-01-18T06:25:40.490Z,71.90
2023-01-18T06:28:12.706Z,71.93
2023-01-18T06:30:47.839Z,71.80
2023-01-18T06:33:20.127Z,71.90
2023-01-18T06:35:52.687Z,71.98
2023-01-18T06:38:25.010Z,71.90
2023-01-18T06:40:57.237Z,71.89
2023-01-18T06:43:29.549Z,72.00
2023-01-18T06:46:02.958Z,72.00
2023-01-18T06:48:35.291Z,71.92
2023-01-18T06:51:07.920Z,72.03
2023-01-18T06:53:40.329Z,72.09
2023-01-18T06:56:14.051Z,72.33
2023-01-18T06:58:48.149Z,72.94
2023-01-18T07:01:22.384Z,73.42
2023-01-18T07:03:54.986Z,73.36
2023-01-18T07:06:27.695Z,73.65
2023-01-18T07:08:59.964Z,73.74
2023-01-18T07:11:32.598Z,73.75
2023-01-18T07:14:04.778Z,73.63
2023-01-18T07:16:37.092Z,73.35
2023-01-18T07:19:09.815Z,73.02
2023-01-18T07:21:42.095Z,72.75
2023-01-18T07:24:14.424Z,72.57
2023-01-18T07:26:46.740Z,72.36
2023-01-18T07:29:18.932Z,72.00
2023-01-18T07:31:51.709Z,71.92
2023-01-18T07:34:23.934Z,71.44
2023-01-18T07:36:56.199Z,71.39
2023-01-18T07:39:28.505Z,71.18
2023-01-18T07:42:00.792Z,71.07
2023-01-18T07:44:33.130Z,70.66
2023-01-18T07:47:05.342Z,70.14
2023-01-18T07:49:37.708Z,69.78
2023-01-18T07:52:10.438Z,69.86
2023-01-18T07:54:42.974Z,69.49
2023-01-18T07:57:15.191Z,68.85
2023-01-18T07:59:47.391Z,68.11
2023-01-18T08:02:19.923Z,68.48
2023-01-18T08:04:52.620Z,68.29
2023-01-18T08:07:25.472Z,68.16
2023-01-18T08:09:58.207Z,67.84
2023-01-18T08:12:30.528Z,67.12
2023-01-18T08:15:02.825Z,66.42
2023-01-18T08:17:35.575Z,66.07
2023-01-18T08:20:09.878Z,66.72
2023-01-18T08:22:42.203Z,66.68
2023-01-18T08:25:14.475Z,66.20
2023-01-18T08:27:46.953Z,66.17
2023-01-18T08:30:20.278Z,65.81
2023-01-18T08:32:52.920Z,65.42
2023-01-18T08:35:26.137Z,65.07
2023-01-18T08:37:59.546Z,64.98
2023-01-18T08:40:32.999Z,64.89
2023-01-18T08:43:07.008Z,64.47
2023-01-18T08:45:39.200Z,64.49
2023-01-18T08:48:13.658Z,64.79
2023-01-18T08:50:46.553Z,64.14
2023-01-18T08:53:18.925Z,63.99
2023-01-18T08:55:56.080Z,63.89
2023-01-18T08:58:28.359Z,63.47
2023-01-18T09:01:00.707Z,63.38
2023-01-18T09:03:33.058Z,63.13
2023-01-18T09:06:08.697Z,62.87
2023-01-18T09:08:41.899Z,62.84
2023-01-18T09:11:14.231Z,62.69
2023-01-18T09:13:59.718Z,62.04
2023-01-18T09:16:33.277Z,62.59
2023-01-18T09:19:06.649Z,62.23
2023-01-18T09:21:39.884Z,61.50
2023-01-18T09:24:13.226Z,61.45
2023-01-18T09:26:46.498Z,61.50
2023-01-18T09:29:19.166Z,61.34
2023-01-18T09:31:54.082Z,61.09
2023-01-18T09:34:28.335Z,61.37
2023-01-18T09:37:03.039Z,60.41
2023-01-18T09:39:50.457Z,60.55
2023-01-18T09:42:27.495Z,60.85
2023-01-18T09:45:01.957Z,60.64
2023-01-18T09:47:39.249Z,59.38
2023-01-18T09:50:18.145Z,59.31
2023-01-18T09:52:54.927Z,59.91
2023-01-18T09:55:34.008Z,59.36
2023-01-18T09:58:24.751Z,59.68
2023-01-18T10:01:03.164Z,59.43
2023-01-18T10:03:47.601Z,59.53
2023-01-18T10:06:25.393Z,58.70
2023-01-18T10:09:04.485Z,59.09
2023-01-18T10:11:47.471Z,58.20
2023-01-18T10:14:23.970Z,58.53
2023-01-18T10:17:01.364Z,58.11
2023-01-18T10:19:35.184Z,58.12
2023-01-18T10:22:13.549Z,57.80
2023-01-18T10:24:53.972Z,57.86
2023-01-18T10:28:08.659Z,57.80
2023-01-18T10:31:05.777Z,56.60
2023-01-18T10:33:42.381Z,56.85
2023-01-18T10:36:19.108Z,56.89
2023-01-18T10:38:53.488Z,56.36
2023-01-18T10:41:29.813Z,56.40
2023-01-18T10:44:02.924Z,56.55
2023-01-18T10:46:35.225Z,56.35
2023-01-18T10:49:09.392Z,55.39
2023-01-18T10:51:41.753Z,55.37
2023-01-18T10:54:29.022Z,55.33
2023-01-18T10:57:17.908Z,55.56
2023-01-18T10:59:55.025Z,55.78
2023-01-18T11:02:31.345Z,55.54
2023-01-18T11:05:20.718Z,54.09
2023-01-18T11:08:13.919Z,54.64
2023-01-18T11:10:46.776Z,54.33
2023-01-18T11:13:32.466Z,53.71
2023-01-18T11:16:13.750Z,53.54
2023-01-18T11:19:00.666Z,53.58
2023-01-18T11:21:45.683Z,54.06
2023-01-18T11:24:25.019Z,53.60
2023-01-18T11:27:01.854Z,53.72
2023-01-18T11:29:39.762Z,53.47
2023-01-18T11:32:20.880Z,53.70
2023-01-18T11:34:56.389Z,53.08
2023-01-18T11:37:37.563Z,53.43
2023-01-18T11:40:35.072Z,52.94
2023-01-18T11:43:17.189Z,52.85
2023-01-18T11:45:58.387Z,52.85
2023-01-18T11:48:37.033Z,52.99
2023-01-18T11:51:19.865Z,52.51
2023-01-18T11:53:59.893Z,52.67
2023-01-18T11:56:42.273Z,52.84
2023-01-18T11:59:23.561Z,52.71
2023-01-18T12:02:25.333Z,52.22
2023-01-18T12:05:15.224Z,52.63
2023-01-18T12:07:59.296Z,52.20
2023-01-18T12:10:39.513Z,52.15
2023-01-18T12:13:34.769Z,52.23
2023-01-18T12:16:25.752Z,52.21
2023-01-18T12:19:25.689Z,51.90
2023-01-18T12:22:24.803Z,52.02
2023-01-18T12:25:11.798Z,51.78
2023-01-18T12:27:51.660Z,51.58
2023-01-18T12:30:44.366Z,51.49
2023-01-18T12:33:42.717Z,50.91
2023-01-18T12:36:27.566Z,50.80
2023-01-18T12:39:04.098Z,51.27
2023-01-18T12:41:44.937Z,51.14
2023-01-18T12:44:39.149Z,51.00
2023-01-18T12:47:36.255Z,51.04
2023-01-18T12:50:18.927Z,51.08
2023-01-18T12:52:57.542Z,51.18
2023-01-18T12:55:33.163Z,51.21
2023-01-18T12:58:06.665Z,51.10
2023-01-18T13:00:41.796Z,51.20
2023-01-18T13:03:17.847Z,50.01
2023-01-18T13:05:55.501Z,50.56
2023-01-18T13:08:44.767Z,50.38
2023-01-18T13:11:20.988Z,50.27
2023-01-18T13:14:00.589Z,50.31
2023-01-18T13:16:44.628Z,50.51
2023-01-18T13:19:24.556Z,50.48
2023-01-18T13:22:06.780Z,50.31
2023-01-18T13:24:53.828Z,50.47
2023-01-18T13:27:27.376Z,50.46
2023-01-18T13:30:10.524Z,50.33
2023-01-18T13:32:47.710Z,50.35
2023-01-18T13:35:25.890Z,50.29
2023-01-18T13:38:00.721Z,50.33
2023-01-18T13:40:41.302Z,50.21
2023-01-18T13:43:34.160Z,50.35
2023-01-18T13:46:22.548Z,49.98
2023-01-18T13:48:57.663Z,50.26
2023-01-18T13:51:54.351Z,50.12
2023-01-18T13:55:03.948Z,50.10
2023-01-18T13:57:37.590Z,50.37
2023-01-18T14:00:26.047Z,50.15
2023-01-18T14:03:07.290Z,50.13
2023-01-18T14:05:43.866Z,50.36
2023-01-18T14:08:24.854Z,50.24
2023-01-18T14:11:02.340Z,50.00
2023-01-18T14:14:04.573Z,50.28
2023-01-18T14:16:40.106Z,50.40
2023-01-18T14:19:18.581Z,50.18
2023-01-18T14:22:08.967Z,50.33
2023-01-18T14:24:55.553Z,50.34
2023-01-18T14:27:33.722Z,50.49
2023-01-18T14:30:12.857Z,50.21
2023-01-18T14:32:56.876Z,50.20
2023-01-18T14:35:29.736Z,50.34
2023-01-18T14:38:18.231Z,50.32
2023-01-18T14:40:53.972Z,50.35
2023-01-18T14:43:30.858Z,50.41
2023-01-18T14:46:06.629Z,50.50
2023-01-18T14:48:46.886Z,50.35
2023-01-18T14:51:23.479Z,50.52
2023-01-18T14:53:58.267Z,50.41
2023-01-18T14:56:34.106Z,50.32
2023-01-18T14:59:21.836Z,50.47
2023-01-18T15:01:57.034Z,50.58
2023-01-18T15:04:31.525Z,50.58
2023-01-18T15:07:07.753Z,50.54
2023-01-18T15:09:44.435Z,50.59
2023-01-18T15:12:23.929Z,50.62
2023-01-18T15:14:59.751Z,50.56
2023-01-18T15:17:32.438Z,50.47
2023-01-18T15:20:08.246Z,50.70
2023-01-18T15:22:41.709Z,50.79
2023-01-18T15:25:26.208Z,50.70
2023-01-18T15:28:11.907Z,50.68
2023-01-18T15:30:56.286Z,50.73
2023-01-18T15:33:32.597Z,50.76
2023-01-18T15:36:05.327Z,50.73
2023-01-18T15:38:38.367Z,50.86
2023-01-18T15:41:14.868Z,50.95
2023-01-18T15:43:48.965Z,50.92
2023-01-18T15:46:23.783Z,51.05
2023-01-18T15:48:58.506Z,51.06
2023-01-18T15:51:44.678Z,51.05
2023-01-18T15:54:19.400Z,51.34
2023-01-18T15:56:52.063Z,51.25
2023-01-18T15:59:27.398Z,51.20
2023-01-18T16:02:19.227Z,51.20
2023-01-18T16:05:08.937Z,51.23
2023-01-18T16:07:43.160Z,51.30
2023-01-18T16:10:30.559Z,51.35
2023-01-18T16:13:30.809Z,51.38
2023-01-18T16:16:26.721Z,51.41
2023-01-18T16:19:14.905Z,51.50
2023-01-18T16:21:51.617Z,51.49
2023-01-18T16:24:30.823Z,51.52
2023-01-18T16:27:12.188Z,51.71
2023-01-18T16:29:50.569Z,51.64
2023-01-18T16:32:32.945Z,51.75
2023-01-18T16:35:13.151Z,51.68
2023-01-18T16:37:45.841Z,51.92
2023-01-18T16:40:22.756Z,51.85
2023-01-18T16:43:04.904Z,51.91
2023-01-18T16:45:39.140Z,51.93
2023-01-18T16:48:18.192Z,52.02
2023-01-18T16:50:51.765Z,52.02
2023-01-18T16:53:24.456Z,52.01
2023-01-18T16:55:57.405Z,51.96
2023-01-18T16:58:34.243Z,52.07
2023-01-18T17:01:12.694Z,52.02
2023-01-18T17:03:45.274Z,51.99
2023-01-18T17:06:20.612Z,52.05
2023-01-18T17:08:52.940Z,51.97
2023-01-18T17:11:25.244Z,51.96
2023-01-18T17:13:57.637Z,52.17
2023-01-18T17:16:29.905Z,52.10
2023-01-18T17:19:02.227Z,52.12
2023-01-18T17:21:34.869Z,52.15
2023-01-18T17:24:07.725Z,52.23
2023-01-18T17:26:41.823Z,52.21
2023-01-18T17:29:17.992Z,52.42
2023-01-18T17:31:52.850Z,52.45
2023-01-18T17:34:28.347Z,52.45
2023-01-18T17:37:03.336Z,52.64
2023-01-18T17:39:44.174Z,52.75
2023-01-18T17:42:29.991Z,52.68
2023-01-18T17:45:06.806Z,52.81
2023-01-18T17:47:40.161Z,52.79
2023-01-18T17:50:19.133Z,52.92
2023-01-18T17:52:52.153Z,52.93
2023-01-18T17:55:34.272Z,53.01
2023-01-18T17:58:07.231Z,53.10
2023-01-18T18:00:39.602Z,53.04
2023-01-18T18:03:11.911Z,53.21
2023-01-18T18:05:45.416Z,53.12
2023-01-18T18:08:17.569Z,53.28
2023-01-18T18:10:49.883Z,53.46
2023-01-18T18:13:22.403Z,53.54
2023-01-18T18:15:55.577Z,53.66
2023-01-18T18:18:27.928Z,53.80
2023-01-18T18:21:05.539Z,53.93
2023-01-18T18:23:38.481Z,54.06
2023-01-18T18:26:10.800Z,54.12
2023-01-18T18:28:43.044Z,54.15
2023-01-18T18:31:17.347Z,54.46
2023-01-18T18:33:49.849Z,54.37
2023-01-18T18:36:22.644Z,54.41
2023-01-18T18:38:55.134Z,54.57
2023-01-18T18:41:27.466Z,54.52
2023-01-18T18:43:59.906Z,54.67
2023-01-18T18:46:32.421Z,54.82
2023-01-18T18:49:04.680Z,54.90
2023-01-18T18:51:37.004Z,54.96
2023-01-18T18:54:11.244Z,55.02
2023-01-18T18:56:44.129Z,55.14
2023-01-18T18:59:16.498Z,55.21
2023-01-18T19:01:51.963Z,55.42
2023-01-18T19:04:24.393Z,55.40
2023-01-18T19:06:56.877Z,55.51
2023-01-18T19:09:29.186Z,55.58
2023-01-18T19:12:01.467Z,55.73
2023-01-18T19:14:33.741Z,55.85
2023-01-18T19:17:06.817Z,55.90
2023-01-18T19:19:39.139Z,56.03
2023-01-18T19:22:11.621Z,56.13
2023-01-18T19:24:44.204Z,56.21
2023-01-18T19:27:16.651Z,56.38
2023-01-18T19:29:48.897Z,56.49
2023-01-18T19:32:23.952Z,56.59
2023-01-18T19:34:56.190Z,56.69
2023-01-18T19:37:28.709Z,56.74
2023-01-18T19:40:01.038Z,56.91
2023-01-18T19:42:33.275Z,56.88
2023-01-18T19:45:08.061Z,57.12
2023-01-18T19:47:41.538Z,57.09
2023-01-18T19:50:14.657Z,57.16
2023-01-18T19:52:47.323Z,57.33
2023-01-18T19:55:21.070Z,57.40
2023-01-18T19:57:55.782Z,57.53
2023-01-18T20:00:29.094Z,57.54
2023-01-18T20:03:02.234Z,57.69
2023-01-18T20:05:34.818Z,57.86
2023-01-18T20:08:08.497Z,57.92
2023-01-18T20:10:40.753Z,58.02
2023-01-18T20:13:20.124Z,57.99
2023-01-18T20:15:54.932Z,58.14
2023-01-18T20:18:27.560Z,58.19
2023-01-18T20:21:05.145Z,58.19
2023-01-18T20:23:38.026Z,58.39
2023-01-18T20:26:11.641Z,58.31
2023-01-18T20:28:44.329Z,58.44
2023-01-18T20:31:16.758Z,58.63
2023-01-18T20:33:49.555Z,58.68
2023-01-18T20:36:21.821Z,58.73
2023-01-18T20:38:54.027Z,58.92
2023-01-18T20:41:26.313Z,58.90
2023-01-18T20:43:58.840Z,58.99
2023-01-18T20:46:31.150Z,59.24
2023-01-18T20:49:03.714Z,59.19
2023-01-18T20:51:36.232Z,59.17
2023-01-18T20:54:08.648Z,59.28
2023-01-18T20:56:41.078Z,59.33
2023-01-18T20:59:14.207Z,59.35
2023-01-18T21:01:48.150Z,59.47
2023-01-18T21:04:21.272Z,59.50
2023-01-18T21:06:53.643Z,59.47
2023-01-18T21:09:25.947Z,59.57
2023-01-18T21:11:58.655Z,59.59
2023-01-18T21:14:30.994Z,59.62
2023-01-18T21:17:03.264Z,59.78
2023-01-18T21:19:35.607Z,59.88
2023-01-18T21:22:08.142Z,59.88
2023-01-18T21:24:40.452Z,59.91
2023-01-18T21:27:12.985Z,59.97
2023-01-18T21:29:45.264Z,60.16
2023-01-18T21:32:17.534Z,60.23
2023-01-18T21:34:49.912Z,60.14
2023-01-18T21:37:22.272Z,60.27
2023-01-18T21:39:54.876Z,60.30
2023-01-18T21:42:44.809Z,60.33
2023-01-18T21:45:35.289Z,60.33
2023-01-18T21:48:08.739Z,60.32
2023-01-18T21:51:01.048Z,60.56
2023-01-18T21:53:50.969Z,60.58
2023-01-18T21:56:23.422Z,60.71
2023-01-18T21:58:57.996Z,60.75
2023-01-18T22:01:34.335Z,60.75
2023-01-18T22:04:25.986Z,60.90
2023-01-18T22:06:59.469Z,60.88
2023-01-18T22:09:33.141Z,60.84
2023-01-18T22:12:05.865Z,60.96
2023-01-18T22:14:38.064Z,60.84
2023-01-18T22:17:10.395Z,61.07
2023-01-18T22:19:44.025Z,61.16
2023-01-18T22:22:16.338Z,61.13
2023-01-18T22:24:48.602Z,61.22
2023-01-18T22:27:20.797Z,61.34
2023-01-18T22:29:53.066Z,61.46
2023-01-18T22:32:25.327Z,61.39
2023-01-18T22:34:57.604Z,61.43
2023-01-18T22:37:29.762Z,61.62
2023-01-18T22:40:01.982Z,61.55
2023-01-18T22:42:35.542Z,61.51
2023-01-18T22:45:09.284Z,61.63
2023-01-18T22:47:41.628Z,61.66
2023-01-18T22:50:14.630Z,61.67
2023-01-18T22:52:46.909Z,61.61
2023-01-18T22:55:19.222Z,61.63
2023-01-18T22:57:51.440Z,61.70
2023-01-18T23:00:24.741Z,62.08
2023-01-18T23:02:56.953Z,61.96
2023-01-18T23:05:29.220Z,62.02
2023-01-18T23:08:01.727Z,62.19
2023-01-18T23:10:34.683Z,62.08
2023-01-18T23:13:07.057Z,62.18
2023-01-18T23:16:02.951Z,62.09
2023-01-18T23:18:35.260Z,62.39
2023-01-18T23:21:07.768Z,62.32
2023-01-18T23:23:41.947Z,62.21
2023-01-18T23:26:14.167Z,62.16
2023-01-18T23:28:46.540Z,62.00
2023-01-18T23:31:19.871Z,62.12
2023-01-18T23:33:52.085Z,61.96
2023-01-18T23:36:24.768Z,61.99
2023-01-18T23:39:14.401Z,62.01
2023-01-18T23:42:04.085Z,61.83
2023-01-18T23:44:53.709Z,61.80
2023-01-18T23:47:43.312Z,61.97
2023-01-18T23:50:32.856Z,61.92
2023-01-18T23:53:22.675Z,62.07
2023-01-18T23:55:55.395Z,62.12
2023-01-18T23:58:27.725Z,62.15
